createdAt,value
2022-09-05T00:15:14.641Z,24.546
2022-09-05T00:31:45.630Z,24.803
2022-09-05T00:46:54.676Z,24.551
2022-09-05T01:01:57.089Z,25.408
2022-09-05T01:16:59.530Z,25.595
2022-09-05T01:32:01.842Z,26.284
2022-09-05T01:47:04.219Z,25.806
2022-09-05T02:02:08.926Z,25.764
2022-09-05T02:17:27.323Z,25.432
2022-09-05T02:32:51.640Z,25.445
2022-09-05T02:47:54.191Z,26.238
2022-09-05T03:02:56.465Z,26.484
2022-09-05T03:18:19.936Z,26.851
2022-09-05T03:33:23.544Z,27.078
2022-09-05T03:48:53.918Z,27.517
2022-09-05T04:08:13.520Z,28.778
2022-09-05T04:23:35.022Z,32.457
2022-09-05T04:38:37.252Z,31.913
2022-09-05T04:53:39.410Z,35.354
2022-09-05T05:08:41.761Z,35.268
2022-09-05T05:23:44.037Z,35.766
2022-09-05T05:38:46.392Z,38.498
2022-09-05T05:53:51.767Z,39.299
2022-09-05T06:12:40.105Z,41.134
2022-09-05T06:30:05.751Z,42.495
2022-09-05T06:45:27.867Z,42.935
2022-09-05T07:00:31.200Z,42.764
2022-09-05T07:15:33.491Z,46.391
2022-09-05T07:30:35.841Z,45.838
2022-09-05T07:45:38.129Z,50.095
2022-09-05T08:00:44.939Z,46.992
2022-09-05T08:16:13.301Z,49.941
2022-09-05T08:31:16.442Z,47.372
2022-09-05T08:46:46.800Z,45.749
2022-09-05T09:02:37.408Z,45.296
2022-09-05T09:17:50.548Z,46.724
2022-09-05T09:32:56.318Z,46.557
2022-09-05T09:48:01.078Z,48.614
2022-09-05T10:06:20.099Z,47.916
2022-09-05T10:26:01.809Z,48.566
2022-09-05T10:41:20.059Z,48.487
2022-09-05T10:56:26.093Z,49.718
2022-09-05T11:11:35.226Z,49.801
2022-09-05T11:26:37.652Z,48.431
2022-09-05T11:41:39.981Z,51.552
2022-09-05T11:56:45.889Z,53.191
2022-09-05T12:11:48.433Z,50.636
2022-09-05T12:27:38.513Z,51.256
2022-09-05T12:42:54.784Z,52.556
2022-09-05T13:02:57.934Z,50.518
2022-09-05T13:18:13.116Z,52.394
2022-09-05T13:38:05.336Z,54.57
2022-09-05T13:53:28.945Z,53.057
2022-09-05T14:08:38.276Z,53.702
2022-09-05T14:23:40.635Z,51.297
2022-09-05T14:38:43.020Z,59.041
2022-09-05T14:54:01.420Z,55.801
2022-09-05T15:11:24.047Z,33.966
2022-09-05T15:27:22.143Z,40.937
2022-09-05T15:42:24.632Z,46.304
2022-09-05T15:57:27.226Z,47.132
2022-09-05T16:12:30.137Z,41.042
2022-09-05T16:27:32.934Z,40.495
2022-09-05T16:42:46.402Z,40.248
2022-09-05T16:57:50.023Z,42.354
2022-09-05T17:12:53.676Z,40.269
2022-09-05T17:29:24.241Z,39.441
2022-09-05T17:44:40.082Z,35.336
2022-09-05T17:59:44.630Z,33.299
2022-09-05T18:14:50.112Z,33.923
2022-09-05T18:29:57.975Z,28.105
2022-09-05T18:45:01.816Z,28.336
2022-09-05T19:00:04.225Z,28.112
2022-09-05T19:15:06.886Z,26.714
2022-09-05T19:36:44.679Z,25.975
2022-09-05T19:52:21.217Z,25.327
2022-09-05T20:07:23.564Z,23.735
2022-09-05T20:22:48.606Z,23.95
2022-09-05T20:43:19.663Z,22.585
2022-09-05T20:58:37.186Z,21.506
2022-09-05T21:13:51.978Z,19.964
2022-09-05T21:28:55.521Z,18.843
2022-09-05T21:47:33.879Z,17.333
2022-09-05T22:02:48.317Z,18.179
2022-09-05T22:17:50.771Z,15.711
2022-09-05T22:32:52.997Z,17.15
2022-09-05T22:47:55.199Z,15.399
2022-09-05T23:02:57.697Z,15.821
2022-09-05T23:17:59.910Z,15.999
2022-09-05T23:33:02.076Z,15.908
2022-09-05T23:48:04.237Z,17.008
